M I D A S
Marine Information and Data Acquisition System
Tripno 744 of the Zeeleeuw from 2004-07-05 06:15:59 to 2004-07-05 13:01:16
Back to CruiseResearch ActivitiesStationsMapUnderway DataData graphs

EquipmentUnitsComment
TimeDGPSUTC
LatitudeDGPSDM.mWGS84
LongitudeDGPSDM.mWGS84
HeadingGyrodeg 
SOGDGPSknotsSpeed over ground
COGDGPSdegCourse over ground
DepthEcho soundermeters200 kHz
Missing or incorrect values are displayed as -999
Navigation data collected by the RV Zeeleeuw from 2004-07-05 06:15:59 to 2004-07-05 13:01:16
                                                                                    Next 1000 lines
Time Latitude Longitude Heading SOG COG Depth
2004-07-05 06:16:08 51°13.603 2°56.066 120.1 2.9 297 -999
2004-07-05 06:16:13 51°13.605 2°56.06 120.8 3.1 297 -999
2004-07-05 06:16:17 51°13.607 2°56.055 121.5 3.3 298 -999
2004-07-05 06:16:23 51°13.611 2°56.046 122.2 3.6 299 -999
2004-07-05 06:16:27 51°13.613 2°56.041 122.9 3.8 300 -999
2004-07-05 06:16:33 51°13.616 2°56.032 122.9 3.8 300 -999
2004-07-05 06:16:38 51°13.619 2°56.025 122.8 3.9 300 -999
2004-07-05 06:16:43 51°13.621 2°56.017 122.5 4 300 -999
2004-07-05 06:16:47 51°13.624 2°56.011 122.1 4.1 300 -999
2004-07-05 06:16:53 51°13.626 2°56.001 121.6 4.1 300 -999
2004-07-05 06:16:57 51°13.628 2°55.994 120.9 4.2 299 -999
2004-07-05 06:17:03 51°13.632 2°55.984 119.7 4.4 298 -999
2004-07-05 06:17:07 51°13.634 2°55.977 118.6 4.4 297 -999
2004-07-05 06:17:13 51°13.637 2°55.966 117.7 4.4 296 -999
2004-07-05 06:17:18 51°13.64 2°55.958 116.6 4.4 294 -999
2004-07-05 06:17:23 51°13.643 2°55.949 115.4 4.4 293 -999
2004-07-05 06:17:28 51°13.645 2°55.94 114.7 4.4 293 -999
2004-07-05 06:17:33 51°13.648 2°55.93 114.2 4.5 292 -999
2004-07-05 06:17:37 51°13.65 2°55.923 113.6 4.6 292 -999
2004-07-05 06:17:43 51°13.652 2°55.911 113 4.7 290 -999
2004-07-05 06:17:48 51°13.655 2°55.901 112.2 4.7 290 -999
2004-07-05 06:17:53 51°13.656 2°55.891 110.9 4.7 289 -999
2004-07-05 06:17:58 51°13.658 2°55.881 109.6 4.7 288 -999
2004-07-05 06:18:03 51°13.66 2°55.872 108.2 4.7 286 -999
2004-07-05 06:18:08 51°13.662 2°55.862 106.8 4.7 285 -999
2004-07-05 06:18:13 51°13.664 2°55.851 105 4.7 283 -999
2004-07-05 06:18:18 51°13.665 2°55.841 103 4.7 282 -999
2004-07-05 06:18:23 51°13.666 2°55.831 101 4.7 279 -999
2004-07-05 06:18:28 51°13.667 2°55.821 99.1 4.5 278 -999
2004-07-05 06:18:33 51°13.667 2°55.812 97.2 4.3 277 -999
2004-07-05 06:18:37 51°13.668 2°55.805 95.7 3.9 276 -999
2004-07-05 06:18:43 51°13.668 2°55.795 94.4 3.2 273 -999
2004-07-05 06:18:48 51°13.668 2°55.789 92.3 2.8 273 -999
2004-07-05 06:18:52 51°13.668 2°55.785 89.7 2.3 272 9.5
2004-07-05 06:18:57 51°13.668 2°55.782 87.2 1.6 274 9.9
2004-07-05 06:19:03 51°13.669 2°55.779 83.6 1.3 274 9.8
2004-07-05 06:19:08 51°13.669 2°55.779 80.2 0.4 331 9.7
2004-07-05 06:19:13 51°13.67 2°55.78 73.3 0.6 28 9.7
2004-07-05 06:19:17 51°13.671 2°55.781 68.2 1 39 9.7
2004-07-05 06:19:23 51°13.673 2°55.784 59.5 1.4 39 10.2
2004-07-05 06:19:27 51°13.675 2°55.786 51.9 1.8 34 10.8
2004-07-05 06:19:33 51°13.677 2°55.788 45.3 1.6 30 11.2
2004-07-05 06:19:37 51°13.678 2°55.789 42.1 1.2 32 11.3
2004-07-05 06:19:43 51°13.679 2°55.79 38.4 0.5 20 11.5
2004-07-05 06:19:44 51°13.679 2°55.79 35.9 0.1 227 11.5
2004-07-05 06:19:52 51°13.678 2°55.789 33.4 0.5 214 11.5
2004-07-05 06:19:57 51°13.676 2°55.788 31.8 0.9 208 11.4
2004-07-05 06:20:03 51°13.674 2°55.786 30.6 1.3 208 11
2004-07-05 06:20:05 51°13.674 2°55.785 29.7 1.9 205 5.1
2004-07-05 06:20:13 51°13.669 2°55.782 28.3 2.2 204 5.2
2004-07-05 06:20:18 51°13.666 2°55.78 26.9 2.3 203 -999
2004-07-05 06:20:24 51°13.663 2°55.778 25.5 2.2 201 -999
2004-07-05 06:20:28 51°13.661 2°55.776 24.9 2 205 -999
2004-07-05 06:20:33 51°13.659 2°55.775 24.3 1.3 203 -999
2004-07-05 06:20:37 51°13.659 2°55.775 22.4 0.6 195 -999
2004-07-05 06:20:43 51°13.659 2°55.775 17.8 0.6 357 -999
2004-07-05 06:20:47 51°13.66 2°55.775 12.2 1 356 -999
2004-07-05 06:20:53 51°13.663 2°55.774 5.6 1.5 351 -999
2004-07-05 06:20:57 51°13.665 2°55.773 358.4 2.1 346 -999
2004-07-05 06:21:03 51°13.669 2°55.771 351.1 2.8 342 -999
2004-07-05 06:21:07 51°13.672 2°55.769 344.8 3.2 337 -999
2004-07-05 06:21:13 51°13.678 2°55.765 340.4 3.6 334 -999
2004-07-05 06:21:18 51°13.683 2°55.761 337.4 4.2 333 -999
2004-07-05 06:21:23 51°13.689 2°55.756 335.1 4.6 329 13.6
2004-07-05 06:21:27 51°13.693 2°55.751 334.2 5 330 13.9
2004-07-05 06:21:33 51°13.7 2°55.743 333.8 5.2 329 13.2
2004-07-05 06:21:35 51°13.703 2°55.74 333.8 5.4 330 12.8
2004-07-05 06:21:42 51°13.712 2°55.731 334.2 5.6 330 11.7
2004-07-05 06:21:48 51°13.72 2°55.724 334.5 5.9 330 10.9
2004-07-05 06:21:52 51°13.726 2°55.719 334.6 6 330 10.4
2004-07-05 06:21:56 51°13.732 2°55.713 334.9 6.1 330 10.4
2004-07-05 06:22:01 51°13.74 2°55.706 335.3 6.2 331 10.1
2004-07-05 06:22:08 51°13.751 2°55.697 335.4 6.4 330 10
2004-07-05 06:22:13 51°13.759 2°55.69 335.4 6.5 330 9.6
2004-07-05 06:22:17 51°13.766 2°55.685 335.4 6.6 330 9.7
2004-07-05 06:22:23 51°13.776 2°55.676 335.8 6.7 331 9.7
2004-07-05 06:22:27 51°13.782 2°55.67 336.5 6.9 332 9.7
2004-07-05 06:22:33 51°13.792 2°55.661 337.4 6.9 332 9.9
2004-07-05 06:22:37 51°13.799 2°55.656 337.9 7 332 10.3
2004-07-05 06:22:42 51°13.808 2°55.649 337.9 7.1 333 10
2004-07-05 06:22:47 51°13.817 2°55.642 338.4 7.1 334 10.1
2004-07-05 06:22:52 51°13.826 2°55.635 339.1 7.2 335 10.1
2004-07-05 06:22:57 51°13.835 2°55.628 340.1 7.3 335 9.9
2004-07-05 06:23:03 51°13.845 2°55.619 341.1 7.3 336 9.5
2004-07-05 06:23:08 51°13.854 2°55.612 341.2 7.4 335 10.2
2004-07-05 06:23:13 51°13.864 2°55.605 341.3 7.5 336 9.5
2004-07-05 06:23:17 51°13.872 2°55.6 341.7 7.6 336 9.9
2004-07-05 06:23:23 51°13.884 2°55.593 342.5 7.7 337 9.8
2004-07-05 06:23:27 51°13.892 2°55.588 342.6 7.8 337 10.1
2004-07-05 06:23:33 51°13.904 2°55.58 342.7 7.8 338 9.5
2004-07-05 06:23:36 51°13.91 2°55.576 343.3 7.8 338 9.7
2004-07-05 06:23:43 51°13.924 2°55.567 343.8 7.9 338 10.3
2004-07-05 06:23:48 51°13.935 2°55.561 344 7.9 338 10.4
2004-07-05 06:23:53 51°13.945 2°55.555 344.1 7.9 338 11
2004-07-05 06:23:57 51°13.953 2°55.55 344.1 8 339 10.8
2004-07-05 06:24:03 51°13.966 2°55.542 344 8 339 11.1
2004-07-05 06:24:07 51°13.974 2°55.537 344.3 8 339 11.5
2004-07-05 06:24:10 51°13.98 2°55.534 344.8 8 340 12
2004-07-05 06:24:17 51°13.995 2°55.525 345 8 339 12.1
2004-07-05 06:24:23 51°14.007 2°55.518 344.6 8.1 339 11.2
2004-07-05 06:24:27 51°14.016 2°55.513 344.6 8.1 340 11.3
2004-07-05 06:24:32 51°14.027 2°55.507 345 8.1 340 11.1
2004-07-05 06:24:37 51°14.037 2°55.501 344.7 8.1 339 11.3
2004-07-05 06:24:43 51°14.049 2°55.492 344 8.1 339 11.5
2004-07-05 06:24:47 51°14.058 2°55.487 343.4 8.3 338 11.6
2004-07-05 06:24:53 51°14.071 2°55.478 343.1 8.3 338 12
2004-07-05 06:24:57 51°14.079 2°55.472 342.8 8.5 337 11.6
2004-07-05 06:25:03 51°14.092 2°55.463 342.6 8.6 337 12.1
2004-07-05 06:25:07 51°14.101 2°55.458 342.4 8.8 337 12.1
2004-07-05 06:25:12 51°14.113 2°55.45 341.8 8.8 336 11.6
2004-07-05 06:25:17 51°14.124 2°55.441 340.8 8.9 335 11.8
2004-07-05 06:25:23 51°14.137 2°55.43 339.6 9 334 11.5
2004-07-05 06:25:27 51°14.146 2°55.422 338.2 9.2 331 11.7
2004-07-05 06:25:33 51°14.159 2°55.41 336.6 9.3 330 11.7
2004-07-05 06:25:37 51°14.169 2°55.401 334.7 9.5 327 11.6
2004-07-05 06:25:43 51°14.182 2°55.387 333.1 9.8 326 11.5
2004-07-05 06:25:47 51°14.192 2°55.377 331.3 10 324 11.9
2004-07-05 06:25:50 51°14.198 2°55.369 329.5 10.2 322 12.1
2004-07-05 06:25:57 51°14.214 2°55.349 327.5 10.3 321 11.8
2004-07-05 06:26:03 51°14.227 2°55.33 325.7 10.4 320 11.9
2004-07-05 06:26:08 51°14.238 2°55.314 323.8 10.6 317 11.7
2004-07-05 06:26:12 51°14.246 2°55.301 322.1 10.7 316 11.3
2004-07-05 06:26:23 51°14.268 2°55.262 318.3 10.8 312 11.4
2004-07-05 06:26:28 51°14.277 2°55.244 315.9 10.9 309 11.7
2004-07-05 06:26:33 51°14.287 2°55.224 314.2 11 308 11.3
2004-07-05 06:26:37 51°14.294 2°55.209 312.6 11 307 11.9
2004-07-05 06:26:43 51°14.305 2°55.185 311.7 11.1 306 11.1
2004-07-05 06:26:48 51°14.314 2°55.164 311.4 11.3 306 11.2
2004-07-05 06:26:53 51°14.324 2°55.144 311.3 11.4 306 11
2004-07-05 06:26:57 51°14.331 2°55.127 311.5 11.5 305 10.9
2004-07-05 06:27:03 51°14.341 2°55.101 310.2 11.6 303 10.9
2004-07-05 06:27:08 51°14.35 2°55.079 308.8 11.8 303 10.6
2004-07-05 06:27:11 51°14.356 2°55.066 308.4 11.9 304 10.9
2004-07-05 06:27:21 51°14.375 2°55.023 310.8 12 306 10.7
2004-07-05 06:27:27 51°14.387 2°54.997 313 12.1 307 10.7
2004-07-05 06:27:31 51°14.395 2°54.98 313.5 12.3 305 10.9
2004-07-05 06:27:37 51°14.406 2°54.952 313.2 12.3 303 10.6
2004-07-05 06:27:41 51°14.413 2°54.933 311.4 12.4 301 10.9
2004-07-05 06:27:46 51°14.421 2°54.909 309.2 12.5 299 10.9
2004-07-05 06:27:51 51°14.429 2°54.884 307.7 12.6 298 11
2004-07-05 06:27:55 51°14.436 2°54.864 307 12.7 298 10.8
2004-07-05 06:28:01 51°14.446 2°54.834 307.4 12.7 298 10.7
2004-07-05 06:28:07 51°14.457 2°54.806 309.2 12.7 301 10.8
2004-07-05 06:28:12 51°14.465 2°54.781 309.5 12.7 298 10.9
2004-07-05 06:28:15 51°14.47 2°54.766 308.2 12.7 297 11.2
2004-07-05 06:28:21 51°14.478 2°54.735 306 12.8 294 10.6
2004-07-05 06:28:27 51°14.486 2°54.703 303.2 12.7 292 10.8
2004-07-05 06:28:32 51°14.49 2°54.676 298.8 12.7 284 10.8
2004-07-05 06:28:36 51°14.493 2°54.654 293.4 12.8 281 10.7
2004-07-05 06:28:41 51°14.495 2°54.626 288.8 12.7 279 10.9
2004-07-05 06:28:46 51°14.496 2°54.6 284.9 11.9 275 10.9
2004-07-05 06:28:52 51°14.497 2°54.57 281.4 11 270 10.8
2004-07-05 06:28:56 51°14.496 2°54.552 277.6 10.4 267 10.9
2004-07-05 06:29:01 51°14.494 2°54.531 272.9 9.7 264 10.9
2004-07-05 06:29:07 51°14.492 2°54.507 268.6 9.2 261 10.8
2004-07-05 06:29:12 51°14.49 2°54.49 265.6 8.2 258 10.8
2004-07-05 06:29:15 51°14.488 2°54.48 263.5 7.8 257 10.9
2004-07-05 06:29:21 51°14.485 2°54.46 262.2 7.3 256 10.9
2004-07-05 06:29:26 51°14.483 2°54.445 261.2 7.2 255 10.9
2004-07-05 06:29:32 51°14.48 2°54.429 260.8 6.6 254 11
2004-07-05 06:29:35 51°14.478 2°54.42 260.3 6.4 254 10.9
2004-07-05 06:29:41 51°14.475 2°54.405 259.8 6.1 253 11.2
2004-07-05 06:29:47 51°14.472 2°54.39 259.5 6 253 10.8
2004-07-05 06:29:52 51°14.47 2°54.378 259.1 5.6 252 10.9
2004-07-05 06:29:57 51°14.468 2°54.367 259 5.4 253 11.1
2004-07-05 06:30:00 51°14.467 2°54.36 259 5.2 252 11.1
2004-07-05 06:30:06 51°14.464 2°54.347 259 5.1 252 10.9
2004-07-05 06:30:12 51°14.462 2°54.335 259.2 4.8 252 10.6
2004-07-05 06:30:16 51°14.46 2°54.327 259.6 4.7 253 10.7
2004-07-05 06:30:21 51°14.458 2°54.317 260 4.6 252 10.5
2004-07-05 06:30:27 51°14.456 2°54.306 260.2 4.5 252 10.4
2004-07-05 06:30:31 51°14.454 2°54.299 260.3 4.4 251 10.1
2004-07-05 06:30:37 51°14.452 2°54.288 260.3 4.3 252 10
2004-07-05 06:30:41 51°14.451 2°54.281 260.4 4.2 251 10
2004-07-05 06:30:47 51°14.449 2°54.27 260.5 4.1 251 9.8
2004-07-05 06:30:51 51°14.447 2°54.264 260.6 4 251 9.8
2004-07-05 06:30:56 51°14.445 2°54.255 260.8 3.9 251 9.8
2004-07-05 06:31:01 51°14.444 2°54.247 261 3.8 251 9.7
2004-07-05 06:31:07 51°14.442 2°54.238 261.2 3.8 251 9.7
2004-07-05 06:31:11 51°14.441 2°54.232 261.4 3.6 252 9.7
2004-07-05 06:31:16 51°14.439 2°54.224 261.8 3.6 252 9.7
2004-07-05 06:31:21 51°14.437 2°54.217 262.1 3.5 251 9.7
2004-07-05 06:31:27 51°14.436 2°54.208 262.5 3.5 251 9.7
2004-07-05 06:31:31 51°14.434 2°54.202 262.7 3.4 251 9.7
2004-07-05 06:31:36 51°14.433 2°54.195 263.1 3.3 252 9.8
2004-07-05 06:31:41 51°14.431 2°54.189 263.3 3.3 251 9.8
2004-07-05 06:31:47 51°14.43 2°54.181 263.6 3.2 252 9.8
2004-07-05 06:31:51 51°14.429 2°54.175 263.8 3.1 252 9.7
2004-07-05 06:31:56 51°14.427 2°54.169 264.1 3.1 252 9.7
2004-07-05 06:32:01 51°14.426 2°54.163 264.4 3 252 9.8
2004-07-05 06:32:07 51°14.425 2°54.155 264.6 3 252 9.7
2004-07-05 06:32:12 51°14.423 2°54.149 264.9 2.9 252 9.8
2004-07-05 06:32:15 51°14.423 2°54.145 265.1 2.9 253 9.7
2004-07-05 06:32:25 51°14.42 2°54.133 265.5 3.1 253 9.8
2004-07-05 06:32:31 51°14.418 2°54.123 265.7 3.6 254 9.8
2004-07-05 06:32:36 51°14.417 2°54.113 265.1 4.8 254 9.7
2004-07-05 06:32:40 51°14.415 2°54.104 263.2 5.3 253 9.8
2004-07-05 06:32:45 51°14.412 2°54.092 261.2 5.7 252 9.6
2004-07-05 06:32:51 51°14.408 2°54.076 258.3 6.2 250 9.7
2004-07-05 06:32:55 51°14.405 2°54.065 255.4 7 246 9.6
2004-07-05 06:33:01 51°14.4 2°54.047 253.1 7.4 246 9.7
2004-07-05 06:33:05 51°14.396 2°54.034 250.7 7.9 244 9.7
2004-07-05 06:33:11 51°14.389 2°54.014 247.9 8.5 241 9.5
2004-07-05 06:33:16 51°14.383 2°53.997 246 9.1 240 9.8
2004-07-05 06:33:20 51°14.377 2°53.982 244 9.5 238 9.7
2004-07-05 06:33:24 51°14.372 2°53.967 243.9 9.9 240 9.6
2004-07-05 06:33:31 51°14.361 2°53.939 243.3 10.7 237 9.6
2004-07-05 06:33:35 51°14.354 2°53.922 242.5 11.5 238 9.6
2004-07-05 06:33:40 51°14.345 2°53.9 241.8 12 237 9.5
2004-07-05 06:33:43 51°14.339 2°53.886 241 12.6 237 9.6
2004-07-05 06:33:51 51°14.323 2°53.848 240.7 12.7 236 9.6
2004-07-05 06:33:55 51°14.315 2°53.829 240.4 13.3 236 9.5
2004-07-05 06:33:59 51°14.307 2°53.809 239.9 13.5 236 9.5
2004-07-05 06:34:05 51°14.294 2°53.778 240.1 13.7 237 9.5
2004-07-05 06:34:09 51°14.286 2°53.758 240.6 13.8 237 9.4
2004-07-05 06:34:15 51°14.274 2°53.727 241.1 14 237 9.4
2004-07-05 06:34:21 51°14.261 2°53.695 241.4 14.1 238 9.4
2004-07-05 06:34:24 51°14.255 2°53.679 241.9 14.1 238 9.4
2004-07-05 06:34:29 51°14.244 2°53.653 242.1 14.2 238 9.5
2004-07-05 06:34:36 51°14.23 2°53.615 242.2 14.2 238 9.3
2004-07-05 06:34:40 51°14.221 2°53.594 242.5 14.2 238 9.3
2004-07-05 06:34:43 51°14.215 2°53.578 242.2 14.3 238 9.4
2004-07-05 06:34:51 51°14.198 2°53.535 241.9 14.3 237 9.4
2004-07-05 06:34:55 51°14.189 2°53.514 241.7 14.3 237 9.4
2004-07-05 06:35:03 51°14.172 2°53.472 241.2 14.4 237 9.4
2004-07-05 06:35:11 51°14.155 2°53.429 241 14.3 236 9.5
2004-07-05 06:35:15 51°14.146 2°53.408 241 14.3 236 9.5
2004-07-05 06:35:21 51°14.132 2°53.377 240.8 14.3 236 9.5
2004-07-05 06:35:25 51°14.124 2°53.356 240.4 14.3 236 9.5
2004-07-05 06:35:31 51°14.11 2°53.324 240.7 14.4 237 9.6
2004-07-05 06:35:35 51°14.102 2°53.303 241.3 14.3 237 9.5
2004-07-05 06:35:41 51°14.089 2°53.271 241.4 14.3 237 9.6
2004-07-05 06:35:45 51°14.08 2°53.25 241.4 14.3 236 9.6
2004-07-05 06:35:51 51°14.066 2°53.219 240.6 14.3 236 9.6
2004-07-05 06:35:55 51°14.057 2°53.198 240.1 14.4 235 9.6
2004-07-05 06:36:01 51°14.043 2°53.167 239.7 14.3 235 9.7
2004-07-05 06:36:05 51°14.034 2°53.146 239.6 14.3 235 9.7
2004-07-05 06:36:11 51°14.021 2°53.114 239.8 14.4 236 9.7
2004-07-05 06:36:15 51°14.012 2°53.093 240.4 14.4 236 9.8
2004-07-05 06:36:21 51°13.999 2°53.061 240.6 14.4 237 9.8
2004-07-05 06:36:25 51°13.99 2°53.04 241.1 14.4 237 9.8
2004-07-05 06:36:31 51°13.977 2°53.008 241.6 14.4 237 9.8
2004-07-05 06:36:35 51°13.969 2°52.987 242.4 14.4 237 9.9
2004-07-05 06:36:41 51°13.956 2°52.954 242.5 14.4 238 10
2004-07-05 06:36:45 51°13.948 2°52.933 242.6 14.3 238 9.9
2004-07-05 06:36:51 51°13.935 2°52.901 242.7 14.4 238 9.9
2004-07-05 06:36:56 51°13.924 2°52.874 242.4 14.4 237 10
2004-07-05 06:37:00 51°13.916 2°52.853 242.3 14.4 237 10
2004-07-05 06:37:05 51°13.905 2°52.826 242 14.4 237 10
2004-07-05 06:37:11 51°13.892 2°52.794 241.5 14.4 237 10.1
2004-07-05 06:37:16 51°13.881 2°52.768 241.2 14.4 237 10.1
2004-07-05 06:37:21 51°13.87 2°52.741 241.2 14.3 237 10.1
2004-07-05 06:37:25 51°13.861 2°52.72 241.2 14.4 236 10
2004-07-05 06:37:31 51°13.848 2°52.688 241.1 14.4 237 10
2004-07-05 06:37:35 51°13.839 2°52.667 241.1 14.3 236 10
2004-07-05 06:37:41 51°13.825 2°52.636 240.6 14.3 236 10.1
2004-07-05 06:37:45 51°13.816 2°52.615 240.4 14.4 236 10.1
2004-07-05 06:37:51 51°13.803 2°52.584 240.2 14.4 236 10.1
2004-07-05 06:37:56 51°13.792 2°52.557 240.3 14.4 236 10
2004-07-05 06:37:59 51°13.785 2°52.541 240.8 14.3 237 10
2004-07-05 06:38:05 51°13.772 2°52.51 241.1 14.3 236 10
2004-07-05 06:38:10 51°13.761 2°52.483 241.1 14.3 236 10
2004-07-05 06:38:15 51°13.75 2°52.457 241 14.4 236 10.1
2004-07-05 06:38:21 51°13.736 2°52.426 240.9 14.3 236 10.1
2004-07-05 06:38:25 51°13.728 2°52.405 240.9 14.3 236 10.1
2004-07-05 06:38:31 51°13.714 2°52.373 240.7 14.4 236 10.2
2004-07-05 06:38:35 51°13.706 2°52.352 240.9 14.4 237 10.2
2004-07-05 06:38:39 51°13.697 2°52.33 241.5 14.3 238 10.2
2004-07-05 06:38:45 51°13.685 2°52.298 242.6 14.3 238 10.1
2004-07-05 06:38:51 51°13.673 2°52.264 243 14.4 238 10.1
2004-07-05 06:38:55 51°13.664 2°52.243 244 14.3 239 10.1
2004-07-05 06:38:59 51°13.656 2°52.221 244.5 14.3 239 10.2
2004-07-05 06:39:05 51°13.644 2°52.188 244.1 14.3 239 10.2
2004-07-05 06:39:11 51°13.632 2°52.156 244.3 14.3 239 10.2
2004-07-05 06:39:15 51°13.623 2°52.134 244.1 14.3 239 10.2
2004-07-05 06:39:25 51°13.603 2°52.08 243.9 14.3 239 10.1
2004-07-05 06:39:31 51°13.591 2°52.047 244.1 14.3 239 10.2
2004-07-05 06:39:36 51°13.581 2°52.02 244.3 14.4 239 10.1
2004-07-05 06:39:40 51°13.573 2°51.998 244.4 14.4 240 10.1
2004-07-05 06:39:45 51°13.563 2°51.971 244.6 14.3 240 10.2
2004-07-05 06:39:49 51°13.555 2°51.949 244.6 14.3 240 10.2
2004-07-05 06:39:55 51°13.543 2°51.916 244.6 14.4 240 10.2
2004-07-05 06:39:59 51°13.535 2°51.894 244.7 14.4 240 10.2
2004-07-05 06:40:05 51°13.523 2°51.862 244.9 14.3 240 10.2
2004-07-05 06:40:11 51°13.511 2°51.829 244.5 14.3 239 10.2
2004-07-05 06:40:14 51°13.504 2°51.813 244.5 14.4 239 10.3
2004-07-05 06:40:19 51°13.494 2°51.785 244.4 14.3 239 10.3
2004-07-05 06:40:25 51°13.482 2°51.753 244.1 14.3 239 10.2
2004-07-05 06:40:30 51°13.472 2°51.726 243.7 14.4 239 10.2
2004-07-05 06:40:35 51°13.462 2°51.698 244.3 14.3 239 10.2
2004-07-05 06:40:41 51°13.449 2°51.666 244.5 14.3 240 10.2
2004-07-05 06:40:45 51°13.441 2°51.644 244.4 14.4 239 10.2
2004-07-05 06:40:51 51°13.429 2°51.611 244.4 14.4 239 10.2
2004-07-05 06:40:55 51°13.421 2°51.589 244.6 14.3 240 10.2
2004-07-05 06:41:01 51°13.409 2°51.556 244.7 14.3 240 10.2
2004-07-05 06:41:05 51°13.401 2°51.534 244.5 14.3 240 10.2
2004-07-05 06:41:09 51°13.393 2°51.513 244.5 14.4 240 10.2
2004-07-05 06:41:15 51°13.381 2°51.48 244.5 14.3 240 10.2
2004-07-05 06:41:21 51°13.369 2°51.447 244.6 14.4 240 10.2
2004-07-05 06:41:23 51°13.365 2°51.436 244.5 14.3 240 10.2
2004-07-05 06:41:33 51°13.345 2°51.381 244.4 14.4 239 10.2
2004-07-05 06:41:38 51°13.335 2°51.354 244.2 14.4 240 10.2
2004-07-05 06:41:44 51°13.323 2°51.321 244.4 14.4 240 10.2
2004-07-05 06:41:48 51°13.315 2°51.3 244.4 14.3 240 10.1
2004-07-05 06:41:53 51°13.304 2°51.272 244.3 14.4 239 10.2
2004-07-05 06:41:59 51°13.292 2°51.239 244.3 14.4 240 10.2
2004-07-05 06:42:04 51°13.282 2°51.212 244.3 14.4 240 10.4
2004-07-05 06:42:07 51°13.276 2°51.196 244 14.3 239 10.3
2004-07-05 06:42:13 51°13.263 2°51.163 244 14.4 239 10.3
2004-07-05 06:42:19 51°13.251 2°51.13 244.1 14.4 240 10.3
2004-07-05 06:42:24 51°13.242 2°51.103 244.6 14.4 240 10.4
2004-07-05 06:42:28 51°13.233 2°51.081 244.7 14.4 240 10.4
2004-07-05 06:42:33 51°13.223 2°51.053 244.7 14.4 240 10.3
2004-07-05 06:42:39 51°13.211 2°51.021 244.7 14.4 240 10.3
2004-07-05 06:42:44 51°13.201 2°50.993 244.5 14.4 240 10.4
2004-07-05 06:42:48 51°13.193 2°50.971 244.5 14.4 239 10.4
2004-07-05 06:42:53 51°13.183 2°50.944 244.3 14.4 239 10.4
2004-07-05 06:42:59 51°13.17 2°50.911 243.9 14.4 239 10.5
2004-07-05 06:43:04 51°13.16 2°50.884 243.8 14.4 238 10.4
2004-07-05 06:43:09 51°13.15 2°50.856 243.7 14.5 240 10.5
2004-07-05 06:43:12 51°13.144 2°50.84 243.8 14.4 239 10.5
2004-07-05 06:43:19 51°13.129 2°50.802 243.8 14.4 239 10.4
2004-07-05 06:43:23 51°13.121 2°50.78 243.7 14.4 239 10.4
2004-07-05 06:43:29 51°13.109 2°50.748 243.8 14.4 239 10.4
2004-07-05 06:43:33 51°13.101 2°50.726 243.8 14.4 239 10.5
2004-07-05 06:43:38 51°13.09 2°50.699 243.7 14.4 239 10.5
2004-07-05 06:43:44 51°13.078 2°50.666 243.6 14.4 239 10.5
2004-07-05 06:43:47 51°13.072 2°50.649 243.6 14.4 239 10.4
2004-07-05 06:43:53 51°13.059 2°50.617 243.8 14.4 239 10.4
2004-07-05 06:43:59 51°13.047 2°50.584 243.9 14.4 239 10.4
2004-07-05 06:44:03 51°13.039 2°50.562 244.1 14.4 240 10.6
2004-07-05 06:44:09 51°13.027 2°50.529 244.8 14.4 240 10.5
2004-07-05 06:44:12 51°13.021 2°50.512 244.8 14.4 240 10.6
2004-07-05 06:44:19 51°13.007 2°50.474 244.9 14.4 240 10.5
2004-07-05 06:44:23 51°12.999 2°50.452 244.5 14.4 239 10.5
2004-07-05 06:44:29 51°12.987 2°50.419 244 14.4 239 10.5
2004-07-05 06:44:33 51°12.979 2°50.397 244 14.4 240 10.5
2004-07-05 06:44:39 51°12.966 2°50.364 244.2 14.4 239 10.5
2004-07-05 06:44:43 51°12.959 2°50.342 244 14.4 240 10.4
2004-07-05 06:44:47 51°12.95 2°50.32 244.4 14.4 240 10.5
2004-07-05 06:44:53 51°12.939 2°50.286 244.8 14.4 240 10.5
2004-07-05 06:44:59 51°12.926 2°50.253 244.9 14.4 240 10.5
2004-07-05 06:45:04 51°12.916 2°50.226 244.7 14.4 239 10.5
2004-07-05 06:45:07 51°12.91 2°50.21 244.4 14.4 240 10.6
2004-07-05 06:45:13 51°12.898 2°50.177 244.3 14.4 239 10.6
2004-07-05 06:45:19 51°12.886 2°50.144 244 14.4 239 10.6
2004-07-05 06:45:24 51°12.875 2°50.116 243.7 14.4 239 10.6
2004-07-05 06:45:28 51°12.867 2°50.094 243.6 14.4 239 10.5
2004-07-05 06:45:33 51°12.857 2°50.067 243.4 14.4 239 10.5
2004-07-05 06:45:39 51°12.844 2°50.034 243.6 14.4 239 10.5
2004-07-05 06:45:44 51°12.834 2°50.007 243.8 14.5 240 10.5
2004-07-05 06:45:48 51°12.826 2°49.985 244.4 14.4 240 10.6
2004-07-05 06:45:54 51°12.814 2°49.951 244.7 14.4 240 10.6
2004-07-05 06:45:57 51°12.809 2°49.935 245.2 14.4 241 10.6
2004-07-05 06:46:04 51°12.795 2°49.896 245.3 14.4 240 10.6
2004-07-05 06:46:08 51°12.787 2°49.874 245.3 14.5 241 10.6
2004-07-05 06:46:13 51°12.777 2°49.846 245.2 14.5 240 10.6
2004-07-05 06:46:19 51°12.765 2°49.813 244.8 14.4 240 10.6
2004-07-05 06:46:24 51°12.754 2°49.786 244.4 14.4 239 10.6
2004-07-05 06:46:29 51°12.744 2°49.758 243.8 14.5 239 10.6
2004-07-05 06:46:33 51°12.736 2°49.737 243.3 14.4 239 10.6
2004-07-05 06:46:39 51°12.723 2°49.704 243.2 14.4 238 10.6
2004-07-05 06:46:44 51°12.713 2°49.677 243.1 14.4 240 10.6
2004-07-05 06:46:48 51°12.705 2°49.655 243.8 14.4 239 10.6
2004-07-05 06:46:50 51°12.701 2°49.644 244.4 14.4 240 10.6
2004-07-05 06:46:59 51°12.683 2°49.594 244.5 14.4 240 10.6
2004-07-05 06:47:04 51°12.673 2°49.567 245.2 14.3 240 10.6
2004-07-05 06:47:09 51°12.663 2°49.539 245.2 14.4 240 10.6
2004-07-05 06:47:13 51°12.656 2°49.517 244.8 14.4 240 10.6
2004-07-05 06:47:19 51°12.643 2°49.484 244.8 14.4 240 10.7
2004-07-05 06:47:24 51°12.633 2°49.456 244.5 14.4 240 10.7
2004-07-05 06:47:29 51°12.623 2°49.429 244.4 14.4 239 10.7
2004-07-05 06:47:33 51°12.615 2°49.407 244 14.4 239 10.7
2004-07-05 06:47:38 51°12.605 2°49.38 243.9 14.4 239 10.6
2004-07-05 06:47:44 51°12.592 2°49.347 243.8 14.4 239 10.6
2004-07-05 06:47:49 51°12.582 2°49.319 243.8 14.4 240 10.7
2004-07-05 06:47:53 51°12.575 2°49.297 244.4 14.4 240 10.7
2004-07-05 06:47:59 51°12.563 2°49.264 244.5 14.4 240 10.7
2004-07-05 06:48:04 51°12.553 2°49.236 245.1 14.4 240 10.7
2004-07-05 06:48:07 51°12.547 2°49.219 245.3 14.4 241 10.6
2004-07-05 06:48:13 51°12.535 2°49.186 245.6 14.4 240 10.7
2004-07-05 06:48:19 51°12.523 2°49.153 245.3 14.4 240 10.7
2004-07-05 06:48:23 51°12.515 2°49.131 244.9 14.4 240 10.7
2004-07-05 06:48:29 51°12.503 2°49.098 244.5 14.4 239 10.7
2004-07-05 06:48:33 51°12.495 2°49.076 244 14.4 239 10.7
2004-07-05 06:48:39 51°12.483 2°49.043 243.8 14.4 239 10.6
2004-07-05 06:48:44 51°12.473 2°49.016 243.8 14.4 239 10.6
2004-07-05 06:48:48 51°12.465 2°48.994 244 14.4 240 10.6
2004-07-05 06:48:53 51°12.455 2°48.966 244.1 14.4 240 10.7
2004-07-05 06:48:59 51°12.443 2°48.933 244.7 14.4 241 10.6
2004-07-05 06:49:04 51°12.433 2°48.906 244.9 14.4 240 10.7
2004-07-05 06:49:08 51°12.425 2°48.884 245 14.4 240 10.6
2004-07-05 06:49:12 51°12.417 2°48.861 244.9 14.4 240 10.6
2004-07-05 06:49:18 51°12.405 2°48.828 244.7 14.4 240 10.7
2004-07-05 06:49:23 51°12.395 2°48.801 244.5 14.4 239 10.6
2004-07-05 06:49:29 51°12.383 2°48.768 244 14.5 240 10.7
2004-07-05 06:49:34 51°12.373 2°48.741 244.1 14.4 239 10.6
2004-07-05 06:49:39 51°12.363 2°48.713 244.1 14.4 240 10.6
2004-07-05 06:49:43 51°12.354 2°48.692 243.7 14.4 239 10.7
2004-07-05 06:49:47 51°12.346 2°48.669 243.6 14.4 240 10.7
2004-07-05 06:49:53 51°12.334 2°48.637 243.8 14.4 239 10.7
2004-07-05 06:49:59 51°12.322 2°48.603 243.9 14.5 240 10.7
2004-07-05 06:50:03 51°12.314 2°48.582 244.5 14.4 240 10.7
2004-07-05 06:50:08 51°12.304 2°48.554 244.5 14.4 240 10.7
2004-07-05 06:50:13 51°12.294 2°48.526 244.7 14.4 240 10.7
2004-07-05 06:50:18 51°12.284 2°48.498 244.8 14.4 240 10.7
2004-07-05 06:50:24 51°12.272 2°48.465 244.7 14.4 240 10.7
2004-07-05 06:50:28 51°12.264 2°48.443 244.5 14.5 240 10.7
2004-07-05 06:50:33 51°12.254 2°48.416 244.3 14.4 240 10.7
2004-07-05 06:50:39 51°12.242 2°48.383 243.7 14.4 239 10.7
2004-07-05 06:50:44 51°12.231 2°48.356 243.4 14.4 239 10.7
2004-07-05 06:50:49 51°12.221 2°48.329 243.4 14.4 239 10.6
2004-07-05 06:50:53 51°12.213 2°48.307 243.4 14.4 239 10.7
2004-07-05 06:50:59 51°12.201 2°48.274 243.6 14.5 239 10.7
2004-07-05 06:51:04 51°12.191 2°48.246 243.8 14.4 240 10.7
2004-07-05 06:51:08 51°12.183 2°48.224 244 14.4 239 10.6
2004-07-05 06:51:13 51°12.173 2°48.197 244.2 14.4 240 10.6
2004-07-05 06:51:19 51°12.161 2°48.164 244.6 14.4 240 10.6
2004-07-05 06:51:23 51°12.153 2°48.141 244.6 14.4 241 10.6
2004-07-05 06:51:29 51°12.141 2°48.108 244.9 14.4 241 10.6
2004-07-05 06:51:34 51°12.132 2°48.08 245.1 14.4 241 10.6
2004-07-05 06:51:36 51°12.128 2°48.069 245.3 14.4 241 10.6
2004-07-05 06:51:43 51°12.114 2°48.03 245.5 14.4 241 10.6
2004-07-05 06:51:49 51°12.102 2°47.997 245.3 14.4 240 10.6
2004-07-05 06:51:53 51°12.094 2°47.974 245 14.4 240 10.6
2004-07-05 06:51:58 51°12.084 2°47.947 244.8 14.4 240 10.6
2004-07-05 06:52:04 51°12.072 2°47.914 244.4 14.4 240 10.6
2004-07-05 06:52:08 51°12.064 2°47.892 244 14.4 240 10.5
2004-07-05 06:52:12 51°12.057 2°47.87 244.3 14.4 241 10.7
2004-07-05 06:52:19 51°12.043 2°47.83 245.4 14.4 242 10.6
2004-07-05 06:52:23 51°12.036 2°47.808 246.6 14.4 243 10.5
2004-07-05 06:52:29 51°12.026 2°47.773 247.6 14.4 244 10.6
2004-07-05 06:52:32 51°12.021 2°47.756 248.2 14.4 245 10.5
2004-07-05 06:52:38 51°12.01 2°47.722 248.9 14.4 245 10.5
2004-07-05 06:52:44 51°12 2°47.687 249.4 14.4 245 10.5
2004-07-05 06:52:49 51°11.991 2°47.658 249.6 14.4 244 10.5
2004-07-05 06:52:53 51°11.985 2°47.635 249.3 14.4 245 10.6
2004-07-05 06:52:59 51°11.974 2°47.601 249.2 14.4 244 10.5
2004-07-05 06:53:04 51°11.965 2°47.573 248.8 14.4 244 10.6
2004-07-05 06:53:08 51°11.958 2°47.55 248.5 14.4 243 10.6
2004-07-05 06:53:13 51°11.949 2°47.521 248.1 14.4 244 10.6
2004-07-05 06:53:18 51°11.94 2°47.493 248.1 14.4 243 10.5
2004-07-05 06:53:23 51°11.931 2°47.464 248 14.4 244 10.5
2004-07-05 06:53:29 51°11.921 2°47.43 248.1 14.4 244 10.5
2004-07-05 06:53:33 51°11.913 2°47.407 248.2 14.4 244 10.6
2004-07-05 06:53:39 51°11.903 2°47.373 248.2 14.4 244 10.6
2004-07-05 06:53:44 51°11.894 2°47.344 248.3 14.4 244 10.6
2004-07-05 06:53:48 51°11.887 2°47.322 248.3 14.4 243 10.6
2004-07-05 06:53:53 51°11.878 2°47.293 248.2 14.4 244 10.6
2004-07-05 06:53:59 51°11.867 2°47.259 248.2 14.4 243 10.5
2004-07-05 06:54:04 51°11.859 2°47.23 247.8 14.4 244 10.5
2004-07-05 06:54:08 51°11.851 2°47.208 248.2 14.4 243 10.4
2004-07-05 06:54:13 51°11.843 2°47.179 248.2 14.4 244 10.5
2004-07-05 06:54:19 51°11.832 2°47.145 248.6 14.4 244 10.5
2004-07-05 06:54:24 51°11.823 2°47.116 248.6 14.4 244 10.5
2004-07-05 06:54:29 51°11.815 2°47.088 248.6 14.4 244 10.4
2004-07-05 06:54:34 51°11.806 2°47.059 248.6 14.4 244 10.5
2004-07-05 06:54:39 51°11.797 2°47.031 248.3 14.4 244 10.4
2004-07-05 06:54:43 51°11.79 2°47.008 248.2 14.4 244 10.5
2004-07-05 06:54:49 51°11.779 2°46.974 248.4 14.4 244 10.4
2004-07-05 06:54:53 51°11.772 2°46.951 248.3 14.4 244 10.6
2004-07-05 06:54:59 51°11.761 2°46.917 248.2 14.4 243 10.5
2004-07-05 06:55:04 51°11.753 2°46.888 247.9 14.4 244 10.5
2004-07-05 06:55:08 51°11.745 2°46.865 248 14.4 244 10.4
2004-07-05 06:55:13 51°11.737 2°46.837 248 14.4 244 10.5
2004-07-05 06:55:19 51°11.726 2°46.803 248.2 14.4 244 10.4
2004-07-05 06:55:23 51°11.719 2°46.779 248.2 14.4 244 10.4
2004-07-05 06:55:29 51°11.709 2°46.745 248.4 14.4 245 10.4
2004-07-05 06:55:33 51°11.702 2°46.722 248.8 14.4 245 10.4
2004-07-05 06:55:39 51°11.691 2°46.688 248.9 14.4 244 10.4
2004-07-05 06:55:43 51°11.685 2°46.665 248.9 14.4 245 10.4
2004-07-05 06:55:49 51°11.674 2°46.63 249 14.4 244 10.5
2004-07-05 06:55:54 51°11.665 2°46.602 248.7 14.5 244 10.5
2004-07-05 06:55:59 51°11.656 2°46.573 248.5 14.4 244 10.5
2004-07-05 06:56:04 51°11.648 2°46.545 248.3 14.4 244 10.5
2004-07-05 06:56:08 51°11.64 2°46.522 247.8 14.4 244 10.6
2004-07-05 06:56:10 51°11.637 2°46.51 247.9 14.4 244 10.6
2004-07-05 06:56:18 51°11.623 2°46.464 248.2 14.4 244 10.6
2004-07-05 06:56:23 51°11.614 2°46.436 248.3 14.4 244 10.6
2004-07-05 06:56:29 51°11.604 2°46.401 248.8 14.4 245 10.6
2004-07-05 06:56:33 51°11.597 2°46.378 249 14.4 245 10.6
2004-07-05 06:56:39 51°11.587 2°46.343 249.3 14.4 245 10.6
2004-07-05 06:56:41 51°11.583 2°46.332 249.4 14.4 245 10.6
2004-07-05 06:56:48 51°11.571 2°46.292 249.2 14.4 245 10.6
2004-07-05 06:56:51 51°11.566 2°46.274 248.9 14.4 244 10.6
2004-07-05 06:56:59 51°11.552 2°46.229 248.6 14.4 244 10.6
2004-07-05 06:57:03 51°11.545 2°46.206 248.3 14.4 244 10.6
2004-07-05 06:57:09 51°11.534 2°46.172 248 14.4 243 10.6
2004-07-05 06:57:13 51°11.527 2°46.149 247.5 14.4 243 10.5
2004-07-05 06:57:19 51°11.516 2°46.115 247.2 14.5 243 10.5
2004-07-05 06:57:24 51°11.508 2°46.086 247.6 14.4 244 10.5
2004-07-05 06:57:28 51°11.501 2°46.063 248.2 14.4 244 10.4
2004-07-05 06:57:33 51°11.492 2°46.035 248.4 14.4 244 10.4
2004-07-05 06:57:39 51°11.481 2°46 248.4 14.5 244 10.4
2004-07-05 06:57:44 51°11.472 2°45.972 248.2 14.4 244 10.4
2004-07-05 06:57:48 51°11.465 2°45.949 248 14.4 243 10.3
2004-07-05 06:57:53 51°11.457 2°45.92 247.7 14.4 244 10.3
2004-07-05 06:57:59 51°11.446 2°45.886 247.9 14.4 243 10.3
2004-07-05 06:58:04 51°11.437 2°45.857 247.8 14.4 244 10.3
2004-07-05 06:58:08 51°11.43 2°45.834 247.8 14.4 244 10.3
2004-07-05 06:58:13 51°11.421 2°45.806 247.9 14.4 243 10.3
2004-07-05 06:58:18 51°11.412 2°45.777 247.7 14.4 244 10.3
2004-07-05 06:58:24 51°11.402 2°45.743 247.8 14.4 244 10.3
2004-07-05 06:58:29 51°11.393 2°45.714 248.1 14.4 244 10.3
2004-07-05 06:58:33 51°11.386 2°45.691 248.3 14.4 245 10.2
2004-07-05 06:58:39 51°11.376 2°45.657 248.9 14.4 245 10.3
2004-07-05 06:58:44 51°11.368 2°45.628 249 14.4 245 10.2
2004-07-05 06:58:48 51°11.361 2°45.605 249.3 14.4 245 10.2
2004-07-05 06:58:53 51°11.353 2°45.576 249.5 14.4 246 10.2
2004-07-05 06:58:59 51°11.343 2°45.541 249.7 14.4 245 10.2
2004-07-05 06:59:04 51°11.334 2°45.512 249.5 14.4 245 10.1
2004-07-05 06:59:08 51°11.327 2°45.489 249.1 14.4 245 10.1
2004-07-05 06:59:12 51°11.321 2°45.466 249.1 14.4 246 10.1
2004-07-05 06:59:19 51°11.309 2°45.425 249.7 14.4 246 10.1
2004-07-05 06:59:24 51°11.301 2°45.396 250 14.5 247 10.1
2004-07-05 06:59:27 51°11.296 2°45.378 250.3 14.4 247 10.1
2004-07-05 06:59:33 51°11.287 2°45.343 250.7 14.4 247 10.1
2004-07-05 06:59:39 51°11.277 2°45.308 251 14.5 247 10.1
2004-07-05 06:59:44 51°11.27 2°45.278 251.5 14.4 247 10.1
2004-07-05 06:59:49 51°11.262 2°45.249 251.6 14.5 247 10
2004-07-05 06:59:53 51°11.256 2°45.225 251.5 14.5 247 10.1
2004-07-05 06:59:59 51°11.246 2°45.19 251.5 14.4 246 10
2004-07-05 07:00:04 51°11.238 2°45.161 250.7 14.5 246 10
2004-07-05 07:00:08 51°11.231 2°45.138 250 14.4 245 10
2004-07-05 07:00:13 51°11.223 2°45.109 249.3 14.4 245 10
2004-07-05 07:00:19 51°11.213 2°45.075 248.9 14.5 245 10
2004-07-05 07:00:24 51°11.204 2°45.045 248.9 14.4 246 10
2004-07-05 07:00:29 51°11.196 2°45.017 249.2 14.5 245 10
2004-07-05 07:00:34 51°11.188 2°44.987 249.5 14.5 247 9.9
2004-07-05 07:00:39 51°11.18 2°44.958 250.3 14.5 246 10
2004-07-05 07:00:43 51°11.174 2°44.935 250.5 14.5 247 9.9
2004-07-05 07:00:48 51°11.166 2°44.905 251 14.4 247 9.9
2004-07-05 07:00:53 51°11.158 2°44.876 251 14.4 247 9.9
2004-07-05 07:00:59 51°11.148 2°44.841 251.1 14.4 247 9.9
2004-07-05 07:01:04 51°11.14 2°44.812 250.9 14.5 246 9.9
2004-07-05 07:01:07 51°11.135 2°44.794 250.4 14.5 246 9.9
2004-07-05 07:01:13 51°11.126 2°44.759 250.3 14.4 246 9.9
2004-07-05 07:01:19 51°11.116 2°44.724 250.2 14.4 246 9.9
2004-07-05 07:01:23 51°11.11 2°44.701 250.1 14.5 247 9.8
2004-07-05 07:01:29 51°11.1 2°44.665 250.4 14.5 247 9.9
2004-07-05 07:01:31 51°11.097 2°44.654 250.7 14.5 246 9.8
2004-07-05 07:01:39 51°11.084 2°44.607 250.6 14.5 247 9.8
2004-07-05 07:01:44 51°11.076 2°44.578 250.8 14.5 246 9.8
2004-07-05 07:01:49 51°11.068 2°44.548 250.8 14.5 247 9.8
2004-07-05 07:01:53 51°11.062 2°44.525 250.9 14.4 247 9.8
2004-07-05 07:01:57 51°11.056 2°44.501 250.6 14.5 247 9.8
2004-07-05 07:02:04 51°11.044 2°44.46 250.4 14.5 246 9.7
2004-07-05 07:02:08 51°11.038 2°44.437 250.1 14.5 246 9.8
2004-07-05 07:02:12 51°11.031 2°44.414 250 14.5 246 9.7
2004-07-05 07:02:19 51°11.02 2°44.373 250 14.5 247 9.7
2004-07-05 07:02:24 51°11.012 2°44.343 250.3 14.5 247 9.7
2004-07-05 07:02:28 51°11.006 2°44.32 250.6 14.5 247 9.7
2004-07-05 07:02:33 51°10.998 2°44.291 250.9 14.5 247 9.6
2004-07-05 07:02:39 51°10.989 2°44.255 250.9 14.5 247 9.6
2004-07-05 07:02:43 51°10.982 2°44.232 251 14.4 247 9.6
2004-07-05 07:02:49 51°10.973 2°44.196 251.1 14.4 247 9.6
2004-07-05 07:02:52 51°10.968 2°44.179 250.9 14.4 246 9.6
2004-07-05 07:02:59 51°10.957 2°44.138 250.5 14.5 247 9.6
2004-07-05 07:03:04 51°10.949 2°44.109 250.4 14.5 247 9.5
2004-07-05 07:03:08 51°10.943 2°44.085 250.2 14.5 246 9.5
2004-07-05 07:03:13 51°10.935 2°44.056 250.3 14.5 247 9.6
2004-07-05 07:03:19 51°10.925 2°44.021 250.4 14.5 247 9.5
2004-07-05 07:03:24 51°10.918 2°43.991 250.7 14.5 248 9.5
2004-07-05 07:03:29 51°10.91 2°43.962 251.3 14.4 247 9.5
2004-07-05 07:03:33 51°10.904 2°43.939 251.3 14.4 247 9.5
2004-07-05 07:03:39 51°10.894 2°43.904 251 14.5 247 9.5
2004-07-05 07:03:43 51°10.888 2°43.88 250.7 14.5 247 9.5
2004-07-05 07:03:48 51°10.88 2°43.851 250.6 14.4 246 9.4
2004-07-05 07:03:53 51°10.871 2°43.822 249.7 14.4 246 9.4
2004-07-05 07:03:59 51°10.861 2°43.787 249.6 14.4 245 9.4
2004-07-05 07:04:04 51°10.853 2°43.758 248.9 14.4 246 9.5
2004-07-05 07:04:08 51°10.846 2°43.735 249 14.5 246 9.4
2004-07-05 07:04:13 51°10.838 2°43.705 249.2 14.4 247 9.4
2004-07-05 07:04:19 51°10.829 2°43.67 249.8 14.4 246 9.3
2004-07-05 07:04:24 51°10.821 2°43.64 250.2 14.5 248 9.3
2004-07-05 07:04:28 51°10.815 2°43.617 251.1 14.5 247 9.3
2004-07-05 07:04:32 51°10.809 2°43.593 251.3 14.4 248 9.3
2004-07-05 07:04:39 51°10.798 2°43.552 251.8 14.4 248 9.3
2004-07-05 07:04:44 51°10.791 2°43.523 252.1 14.4 248 9.3
2004-07-05 07:04:48 51°10.785 2°43.499 251.9 14.4 247 9.3
2004-07-05 07:04:53 51°10.777 2°43.47 251.1 14.5 247 9.3
2004-07-05 07:04:59 51°10.767 2°43.435 250.8 14.4 246 9.3
2004-07-05 07:05:04 51°10.759 2°43.406 250.3 14.4 246 9.3
2004-07-05 07:05:09 51°10.751 2°43.377 249.6 14.4 246 9.3
2004-07-05 07:05:13 51°10.744 2°43.353 249.6 14.4 246 9.2
2004-07-05 07:05:19 51°10.735 2°43.318 249.9 14.4 247 9.2
2004-07-05 07:05:24 51°10.727 2°43.288 250.5 14.4 248 9.2
2004-07-05 07:05:29 51°10.72 2°43.259 251.1 14.4 247 9.2
2004-07-05 07:05:33 51°10.714 2°43.235 251.4 14.4 248 9.2
2004-07-05 07:05:39 51°10.705 2°43.2 251.8 14.4 248 9.2
2004-07-05 07:05:43 51°10.699 2°43.176 251.7 14.4 247 9.1
2004-07-05 07:05:49 51°10.689 2°43.141 251.4 14.4 248 9.1
2004-07-05 07:05:53 51°10.683 2°43.118 251.4 14.4 247 9.1
2004-07-05 07:05:57 51°10.677 2°43.094 251 14.4 247 9.1
2004-07-05 07:06:04 51°10.666 2°43.053 250.5 14.4 247 9.1
2004-07-05 07:06:09 51°10.658 2°43.024 250.4 14.4 246 9.1
2004-07-05 07:06:13 51°10.652 2°43.001 250.2 14.4 247 9
2004-07-05 07:06:19 51°10.642 2°42.966 250.4 14.4 247 9.1
2004-07-05 07:06:24 51°10.634 2°42.936 250.4 14.4 247 9
2004-07-05 07:06:28 51°10.628 2°42.913 250.4 14.4 247 9
2004-07-05 07:06:33 51°10.62 2°42.884 250.4 14.4 247 9
2004-07-05 07:06:39 51°10.611 2°42.849 250.4 14.4 247 9.1
2004-07-05 07:06:44 51°10.603 2°42.819 250.3 14.4 247 9
2004-07-05 07:06:48 51°10.597 2°42.796 250.5 14.4 247 9
2004-07-05 07:06:52 51°10.591 2°42.772 250.8 14.4 248 8.9
2004-07-05 07:06:59 51°10.58 2°42.731 251.4 14.4 248 8.9
2004-07-05 07:07:03 51°10.574 2°42.707 251.5 14.4 248 8.9
2004-07-05 07:07:09 51°10.565 2°42.672 251.1 14.4 248 8.9
2004-07-05 07:07:11 51°10.562 2°42.66 251.2 14.4 247 8.9
2004-07-05 07:07:19 51°10.55 2°42.613 250.8 14.4 247 8.9
2004-07-05 07:07:23 51°10.543 2°42.59 250.6 14.4 247 8.9
2004-07-05 07:07:29 51°10.534 2°42.555 250.4 14.4 247 8.9
2004-07-05 07:07:33 51°10.528 2°42.531 250.8 14.4 248 8.9
2004-07-05 07:07:39 51°10.519 2°42.496 251.1 14.4 248 8.9
2004-07-05 07:07:43 51°10.513 2°42.472 251.2 14.4 248 8.9
2004-07-05 07:07:48 51°10.506 2°42.442 251.8 14.4 249 8.9
2004-07-05 07:07:53 51°10.498 2°42.413 251.8 14.4 248 8.9
2004-07-05 07:07:57 51°10.492 2°42.389 251.8 14.4 248 8.8
2004-07-05 07:08:04 51°10.482 2°42.348 251.4 14.4 247 8.8
2004-07-05 07:08:09 51°10.474 2°42.318 250.7 14.4 247 8.8
2004-07-05 07:08:13 51°10.467 2°42.295 250.5 14.4 247 8.8
2004-07-05 07:08:19 51°10.458 2°42.26 250.3 14.5 247 8.8
2004-07-05 07:08:24 51°10.45 2°42.231 250 14.4 246 8.9
2004-07-05 07:08:28 51°10.444 2°42.207 249.8 14.5 247 8.9
2004-07-05 07:08:33 51°10.436 2°42.177 250.3 14.5 248 8.8
2004-07-05 07:08:39 51°10.427 2°42.142 250.9 14.5 248 8.8
2004-07-05 07:08:43 51°10.421 2°42.118 251.3 14.4 248 8.9
2004-07-05 07:08:48 51°10.414 2°42.089 251.5 14.4 249 8.9
2004-07-05 07:08:53 51°10.407 2°42.059 251.8 14.5 248 8.9
2004-07-05 07:08:58 51°10.399 2°42.029 251.8 14.4 248 8.8
2004-07-05 07:09:04 51°10.39 2°41.994 251.3 14.4 247 8.9
2004-07-05 07:09:08 51°10.383 2°41.971 250.7 14.4 247 8.9
2004-07-05 07:09:13 51°10.375 2°41.942 249.9 14.4 246 8.9
2004-07-05 07:09:19 51°10.365 2°41.907 248.8 14.4 245 8.9
2004-07-05 07:09:23 51°10.358 2°41.884 248.3 14.4 244 8.9
2004-07-05 07:09:28 51°10.35 2°41.855 247.6 14.5 245 8.8
2004-07-05 07:09:32 51°10.343 2°41.832 247.4 14.4 244 8.9
2004-07-05 07:09:39 51°10.331 2°41.792 247.4 14.4 245 8.9
2004-07-05 07:09:44 51°10.323 2°41.763 247.7 14.4 245 8.9
2004-07-05 07:09:49 51°10.315 2°41.734 248.2 14.4 247 9
2004-07-05 07:09:53 51°10.309 2°41.71 249.6 14.5 247 8.8
2004-07-05 07:09:59 51°10.3 2°41.675 250.3 14.5 249 8.9
2004-07-05 07:10:04 51°10.292 2°41.645 251.4 14.4 248 8.9
2004-07-05 07:10:09 51°10.285 2°41.616 251.6 14.4 249 8.8
2004-07-05 07:10:13 51°10.279 2°41.592 251.8 14.4 248 8.9
2004-07-05 07:10:19 51°10.27 2°41.557 251.5 14.4 248 8.9
2004-07-05 07:10:24 51°10.263 2°41.527 251.4 14.4 248 8.9
2004-07-05 07:10:27 51°10.258 2°41.51 251.1 14.4 248 8.8
2004-07-05 07:10:34 51°10.248 2°41.468 250.6 14.5 247 8.9
2004-07-05 07:10:39 51°10.24 2°41.439 250.5 14.4 247 8.9
2004-07-05 07:10:44 51°10.232 2°41.41 249.9 14.4 247 8.9
2004-07-05 07:10:49 51°10.224 2°41.381 249.5 14.4 247 8.9
2004-07-05 07:10:53 51°10.218 2°41.357 249.8 14.4 247 8.8
2004-07-05 07:10:59 51°10.209 2°41.322 250.4 14.4 248 8.9
2004-07-05 07:11:03 51°10.203 2°41.298 250.9 14.4 248 8.9
2004-07-05 07:11:08 51°10.196 2°41.269 250.9 14.5 249 8.9
2004-07-05 07:11:13 51°10.188 2°41.239 251.5 14.4 249 9
2004-07-05 07:11:19 51°10.179 2°41.203 251.5 14.4 248 8.9
2004-07-05 07:11:24 51°10.172 2°41.174 251.1 14.4 248 8.9
2004-07-05 07:11:29 51°10.164 2°41.144 251.1 14.5 248 8.9
2004-07-05 07:11:33 51°10.158 2°41.121 250.6 14.4 248 8.9
2004-07-05 07:11:39 51°10.149 2°41.085 250.6 14.5 248 8.9
2004-07-05 07:11:44 51°10.141 2°41.056 250.5 14.5 248 9
2004-07-05 07:11:49 51°10.134 2°41.026 250.7 14.5 248 9
2004-07-05 07:11:53 51°10.128 2°41.002 250.9 14.5 248 9
2004-07-05 07:11:59 51°10.119 2°40.967 251 14.5 248 9
2004-07-05 07:12:04 51°10.112 2°40.937 251.1 14.4 248 9.1
2004-07-05 07:12:08 51°10.105 2°40.914 250.9 14.4 247 9
2004-07-05 07:12:21 51°10.085 2°40.838 249.6 14.4 246 8.9
2004-07-05 07:12:25 51°10.078 2°40.815 248.7 14.4 246 9
2004-07-05 07:12:32 51°10.066 2°40.774 248.2 14.4 245 9
2004-07-05 07:12:37 51°10.058 2°40.745 247.7 14.4 246 9
2004-07-05 07:12:42 51°10.05 2°40.716 247.8 14.4 246 9
2004-07-05 07:12:47 51°10.042 2°40.687 248.6 14.4 247 9
2004-07-05 07:12:52 51°10.035 2°40.657 249.3 14.4 248 9.1
2004-07-05 07:12:57 51°10.027 2°40.628 250.4 14.5 248 9
2004-07-05 07:13:01 51°10.021 2°40.604 251 14.4 249 9
2004-07-05 07:13:07 51°10.013 2°40.568 251.4 14.4 249 9.1
2004-07-05 07:13:12 51°10.006 2°40.539 252.1 14.4 249 9.1
2004-07-05 07:13:17 51°9.999 2°40.509 252.2 14.4 249 9.1
2004-07-05 07:13:21 51°9.993 2°40.485 252.2 14.4 248 9.1
2004-07-05 07:13:27 51°9.984 2°40.449 251.8 14.5 249 9.1
2004-07-05 07:13:32 51°9.976 2°40.42 250.9 14.5 247 9.1
2004-07-05 07:13:35 51°9.971 2°40.402 250 14.4 247 9.1
2004-07-05 07:13:41 51°9.961 2°40.368 248.9 14.4 246 9.1
2004-07-05 07:13:47 51°9.952 2°40.333 248.3 14.4 246 9.1
2004-07-05 07:13:51 51°9.945 2°40.31 248.1 14.4 246 9.1
2004-07-05 07:13:56 51°9.937 2°40.28 248.2 14.5 246 9
2004-07-05 07:14:01 51°9.93 2°40.251 248.9 14.5 248 9.1
2004-07-05 07:14:05 51°9.924 2°40.227 250.4 14.5 249 9.1
2004-07-05 07:14:11 51°9.917 2°40.19 253.3 14.4 252 9
2004-07-05 07:14:16 51°9.911 2°40.16 254.7 14.4 253 9.1
2004-07-05 07:14:21 51°9.905 2°40.13 255.6 14.4 253 9.2
2004-07-05 07:14:27 51°9.898 2°40.093 256.7 14.5 254 9.1
2004-07-05 07:14:32 51°9.892 2°40.062 256.9 14.5 254 9.1
2004-07-05 07:14:37 51°9.886 2°40.032 256.8 14.5 253 9.2
2004-07-05 07:14:41 51°9.881 2°40.007 256.4 14.5 252 9.2
2004-07-05 07:14:47 51°9.874 2°39.971 255.4 14.4 252 9.2
2004-07-05 07:14:51 51°9.869 2°39.947 254.7 14.5 251 9.2
2004-07-05 07:14:56 51°9.862 2°39.917 253.9 14.5 251 9.2
2004-07-05 07:15:01 51°9.855 2°39.887 253.4 14.5 251 9.2
2004-07-05 07:15:07 51°9.848 2°39.85 253.6 14.5 252 9.2
2004-07-05 07:15:12 51°9.842 2°39.82 254.7 14.5 252 9.2
2004-07-05 07:15:16 51°9.837 2°39.795 255.1 14.5 253 9.3
2004-07-05 07:15:21 51°9.831 2°39.765 255.8 14.5 253 9.2
2004-07-05 07:15:27 51°9.824 2°39.728 256.2 14.5 254 9.3
2004-07-05 07:15:31 51°9.82 2°39.703 256.9 14.5 254 9.3
2004-07-05 07:15:36 51°9.814 2°39.672 257.2 14.5 254 9.2
2004-07-05 07:15:41 51°9.809 2°39.642 257.5 14.5 254 9.3
2004-07-05 07:15:47 51°9.802 2°39.605 257.1 14.5 253 9.4
2004-07-05 07:15:52 51°9.795 2°39.575 256.2 14.5 252 9.3
2004-07-05 07:15:56 51°9.79 2°39.55 255.2 14.5 251 9.3
2004-07-05 07:16:02 51°9.783 2°39.514 254.3 14.5 251 9.3
2004-07-05 07:16:07 51°9.776 2°39.484 253.7 14.5 251 9.3
2004-07-05 07:16:12 51°9.769 2°39.454 253.6 14.5 251 9.3
2004-07-05 07:16:17 51°9.763 2°39.423 253.6 14.5 251 9.4
2004-07-05 07:16:21 51°9.758 2°39.399 254 14.5 252 9.4
2004-07-05 07:16:27 51°9.75 2°39.362 254.6 14.5 252 9.4
2004-07-05 07:16:32 51°9.744 2°39.332 254.8 14.5 252 9.4
2004-07-05 07:16:35 51°9.741 2°39.313 255 14.5 252 9.5
2004-07-05 07:16:41 51°9.733 2°39.277 255.1 14.5 252 9.5
2004-07-05 07:16:47 51°9.725 2°39.24 255.1 14.6 252 9.5
2004-07-05 07:16:51 51°9.72 2°39.216 254.7 14.6 251 9.5
2004-07-05 07:16:56 51°9.714 2°39.185 254.4 14.6 251 9.5
2004-07-05 07:17:01 51°9.708 2°39.155 254.2 14.6 252 9.6
2004-07-05 07:17:07 51°9.7 2°39.118 254.3 14.6 252 9.6
2004-07-05 07:17:12 51°9.694 2°39.087 254.5 14.6 252 9.6
2004-07-05 07:17:17 51°9.687 2°39.057 254.7 14.6 252 9.6
2004-07-05 07:17:21 51°9.683 2°39.032 255 14.6 253 9.6
2004-07-05 07:17:27 51°9.676 2°38.995 255.8 14.6 253 9.6
2004-07-05 07:17:32 51°9.67 2°38.964 255.9 14.6 254 9.7
2004-07-05 07:17:36 51°9.665 2°38.94 256.3 14.5 253 9.7
2004-07-05 07:17:41 51°9.659 2°38.909 256.2 14.6 253 9.8
2004-07-05 07:17:47 51°9.652 2°38.872 255.9 14.6 253 9.8
2004-07-05 07:17:52 51°9.646 2°38.842 255.7 14.6 252 9.8
2004-07-05 07:17:57 51°9.639 2°38.811 255.2 14.6 252 9.9
2004-07-05 07:18:01 51°9.634 2°38.786 254.7 14.6 251 9.9
2004-07-05 07:18:07 51°9.626 2°38.75 254.1 14.6 251 9.9
2004-07-05 07:18:12 51°9.62 2°38.72 254 14.6 251 9.9
2004-07-05 07:18:17 51°9.613 2°38.689 253.6 14.5 251 9.9
2004-07-05 07:18:21 51°9.608 2°38.666 254.1 13.8 250 9.8
2004-07-05 07:18:27 51°9.601 2°38.634 254.6 13.1 250 9.8
2004-07-05 07:18:31 51°9.594 2°38.616 251.1 11.8 237 9.8
2004-07-05 07:18:36 51°9.584 2°38.598 238.8 11 230 9.8
2004-07-05 07:18:41 51°9.573 2°38.583 228.8 9.8 221 9.9
2004-07-05 07:18:47 51°9.561 2°38.569 221.6 9.8 221 10
2004-07-05 07:18:52 51°9.55 2°38.561 212.5 8.4 206 10
2004-07-05 07:18:57 51°9.54 2°38.556 203.8 7.9 200 10
2004-07-05 07:19:01 51°9.532 2°38.554 194.9 7.3 190 10
2004-07-05 07:19:07 51°9.521 2°38.553 185.8 7 183 10
2004-07-05 07:19:12 51°9.512 2°38.555 176.3 6.5 172 10
2004-07-05 07:19:17 51°9.504 2°38.559 166.9 6.3 165 9.9
2004-07-05 07:19:21 51°9.498 2°38.564 157.7 5.9 154 9.9
2004-07-05 07:19:27 51°9.49 2°38.572 148.3 5.8 151 9.9
2004-07-05 07:19:32 51°9.485 2°38.58 139.3 5.4 136 9.8
2004-07-05 07:19:36 51°9.481 2°38.588 130.4 5.2 128 9.7
2004-07-05 07:19:41 51°9.478 2°38.598 121.3 5.1 119 9.7
2004-07-05 07:19:47 51°9.475 2°38.611 112.8 5.2 112 9.7
2004-07-05 07:19:52 51°9.474 2°38.623 105.7 5.4 100 9.6
2004-07-05 07:19:57 51°9.474 2°38.635 99.4 5.5 94 9.6
2004-07-05 07:20:00 51°9.474 2°38.643 92.7 5.6 89 9.6
2004-07-05 07:20:07 51°9.475 2°38.661 88.1 5.8 84 9.5
2004-07-05 07:20:12 51°9.476 2°38.676 85.3 6.6 83 9.5
2004-07-05 07:20:16 51°9.476 2°38.689 85.1 7.1 84 9.5
2004-07-05 07:20:21 51°9.478 2°38.705 85.1 7.4 84 9.5
2004-07-05 07:20:27 51°9.479 2°38.726 84.9 7.7 82 9.4
2004-07-05 07:20:32 51°9.481 2°38.744 84.6 8.2 80 9.4
2004-07-05 07:20:36 51°9.483 2°38.759 83.8 8.5 79 9.3
2004-07-05 07:20:41 51°9.486 2°38.777 82.1 8.8 78 9.3
2004-07-05 07:20:47 51°9.491 2°38.801 79.3 9.2 72 9.3
2004-07-05 07:20:52 51°9.496 2°38.82 76.2 9.6 71 9.2
2004-07-05 07:20:57 51°9.501 2°38.841 74.4 9.8 69 9.2
2004-07-05 07:20:59 51°9.503 2°38.849 73.9 10 70 9.2
2004-07-05 07:21:05 51°9.509 2°38.874 73.8 10.2 70 9.2
2004-07-05 07:21:12 51°9.515 2°38.905 74.2 10.3 71 9.2
2004-07-05 07:21:15 51°9.517 2°38.918 75.3 10.5 73 9.1
2004-07-05 07:21:21 51°9.521 2°38.945 77.6 10.5 76 9.1
2004-07-05 07:21:27 51°9.524 2°38.973 80.7 10.6 78 9.1
2004-07-05 07:21:32 51°9.527 2°38.996 82.6 10.7 79 9
2004-07-05 07:21:36 51°9.53 2°39.015 82.5 10.8 79 9
2004-07-05 07:21:41 51°9.533 2°39.038 82.1 10.8 79 9
2004-07-05 07:21:47 51°9.536 2°39.066 82.2 10.9 80 8.9
2004-07-05 07:21:52 51°9.54 2°39.09 82.7 10.9 78 8.9
2004-07-05 07:21:56 51°9.542 2°39.109 81.7 11 78 8.8
2004-07-05 07:22:01 51°9.546 2°39.132 80.6 11 77 8.8
2004-07-05 07:22:07 51°9.55 2°39.161 79.8 11 76 8.8
2004-07-05 07:22:12 51°9.554 2°39.184 79.5 11.1 75 8.8
2004-07-05 07:22:16 51°9.558 2°39.203 79.1 11 75 8.7
2004-07-05 07:22:21 51°9.562 2°39.226 78.9 11 75 8.7
2004-07-05 07:22:27 51°9.567 2°39.255 78.6 11.1 74 8.7
2004-07-05 07:22:32 51°9.571 2°39.278 77.8 11.1 74 8.7
2004-07-05 07:22:37 51°9.576 2°39.302 77.6 11.1 74 8.7
2004-07-05 07:22:41 51°9.579 2°39.321 78.1 11.1 75 8.7
2004-07-05 07:22:47 51°9.584 2°39.348 78.1 11.1 73 8.7
2004-07-05 07:22:52 51°9.588 2°39.372 76.9 11.1 71 8.7
2004-07-05 07:22:57 51°9.594 2°39.395 75.7 11 70 8.7
2004-07-05 07:23:01 51°9.598 2°39.413 73.9 11.1 69 8.6
2004-07-05 07:23:07 51°9.606 2°39.439 72.2 11.1 66 8.7
2004-07-05 07:23:12 51°9.613 2°39.461 70.4 11 63 8.6
2004-07-05 07:23:16 51°9.619 2°39.478 68.5 11.1 62 8.6
2004-07-05 07:23:21 51°9.626 2°39.5 67.5 11.1 62 8.6
2004-07-05 07:23:33 51°9.643 2°39.553 69.5 11.1 67 8.7
2004-07-05 07:23:39 51°9.648 2°39.581 72.4 11.1 70 8.6
2004-07-05 07:23:43 51°9.652 2°39.6 75.2 11 74 8.6
2004-07-05 07:23:48 51°9.655 2°39.623 77.6 10.8 76 8.6
2004-07-05 07:23:53 51°9.658 2°39.646 79.6 10.7 77 8.6
2004-07-05 07:23:59 51°9.661 2°39.674 81.4 10.6 81 8.6
2004-07-05 07:24:04 51°9.663 2°39.697 83.5 10.4 82 8.5
2004-07-05 07:24:08 51°9.664 2°39.715 85.4 10.4 85 8.6
2004-07-05 07:24:14 51°9.665 2°39.742 86.8 10.3 85 8.6
2004-07-05 07:24:19 51°9.666 2°39.764 87.2 10.2 86 8.6
2004-07-05 07:24:24 51°9.667 2°39.786 88 10.1 86 8.5
2004-07-05 07:24:28 51°9.668 2°39.804 88.5 10 86 8.5
2004-07-05 07:24:33 51°9.669 2°39.826 88.5 10 85 8.5
2004-07-05 07:24:39 51°9.671 2°39.852 87.5 10 84 8.4
2004-07-05 07:24:44 51°9.673 2°39.873 86.1 9.9 82 8.4
2004-07-05 07:24:48 51°9.675 2°39.891 84.3 9.8 80 8.4
2004-07-05 07:24:54 51°9.679 2°39.915 82.1 9.8 78 8.3
2004-07-05 07:24:57 51°9.681 2°39.928 80 9.7 75 8.3
2004-07-05 07:25:04 51°9.686 2°39.957 78.4 9.7 74 8.3
2004-07-05 07:25:09 51°9.69 2°39.977 77.5 9.7 73 8.3
2004-07-05 07:25:13 51°9.694 2°39.993 76.1 9.7 71 8.3
2004-07-05 07:25:19 51°9.699 2°40.017 75 9.7 70 8.3
2004-07-05 07:25:24 51°9.705 2°40.038 73.9 9.7 69 8.3
2004-07-05 07:25:29 51°9.709 2°40.058 73.4 9.7 71 8.3
2004-07-05 07:25:33 51°9.713 2°40.074 73.9 9.7 69 8.3
2004-07-05 07:25:39 51°9.718 2°40.098 74.7 9.7 72 8.3
2004-07-05 07:25:44 51°9.721 2°40.117 76 9 75 8.2
2004-07-05 07:25:49 51°9.724 2°40.135 77.2 8.5 75 8.2
2004-07-05 07:25:53 51°9.726 2°40.149 79.1 7.9 79 8.2
2004-07-05 07:25:59 51°9.728 2°40.168 81.9 7.4 82 8.3
2004-07-05 07:26:04 51°9.728 2°40.183 85.4 6.8 87 8.3
2004-07-05 07:26:08 51°9.728 2°40.194 89.2 6.5 91 8.3
2004-07-05 07:26:13 51°9.727 2°40.208 92.7 6.1 93 8.3
2004-07-05 07:26:19 51°9.726 2°40.222 96.2 5.6 99 8.2
2004-07-05 07:26:24 51°9.724 2°40.234 99.2 5.3 102 8.2
2004-07-05 07:26:28 51°9.723 2°40.242 102 5 106 8.3
2004-07-05 07:26:33 51°9.721 2°40.252 104.6 4.8 107 8.2
2004-07-05 07:26:39 51°9.718 2°40.263 107 4.6 110 8.2
2004-07-05 07:26:44 51°9.716 2°40.272 109.4 4.3 115 8.2
2004-07-05 07:26:48 51°9.714 2°40.278 111.6 4.2 117 8.2
2004-07-05 07:26:53 51°9.711 2°40.286 113.5 4 120 8.2
2004-07-05 07:26:59 51°9.707 2°40.294 115.4 3.9 122 8.1
2004-07-05 07:27:04 51°9.705 2°40.301 117 3.6 125 8.1
2004-07-05 07:27:08 51°9.702 2°40.306 118.4 3.5 126 8.1
2004-07-05 07:27:13 51°9.699 2°40.312 119.4 3.4 127 8.1
2004-07-05 07:27:19 51°9.696 2°40.319 120.3 3.2 128 8
2004-07-05 07:27:24 51°9.693 2°40.324 121.2 3.1 131 8
2004-07-05 07:27:28 51°9.691 2°40.328 121.9 3 132 8
2004-07-05 07:27:33 51°9.689 2°40.332 122.6 3 132 8
2004-07-05 07:27:39 51°9.685 2°40.338 123.4 2.9 134 8
2004-07-05 07:27:43 51°9.683 2°40.341 124 2.8 136 7.9
2004-07-05 07:27:49 51°9.68 2°40.346 124.6 2.7 136 7.9
2004-07-05 07:27:53 51°9.678 2°40.349 125.3 2.7 138 7.9
2004-07-05 07:27:58 51°9.675 2°40.353 125.9 2.6 139 7.9
2004-07-05 07:28:04 51°9.672 2°40.357 126.5 2.5 141 7.9
2004-07-05 07:28:09 51°9.669 2°40.361 127 2.4 141 7.8
2004-07-05 07:28:13 51°9.667 2°40.363 127.5 2.4 142 7.9
2004-07-05 07:28:19 51°9.664 2°40.367 127.7 2.4 142 7.9
2004-07-05 07:28:23 51°9.662 2°40.369 128.1 2.3 144 7.8
2004-07-05 07:28:28 51°9.659 2°40.372 128.4 2.3 144 7.8
2004-07-05 07:28:33 51°9.657 2°40.375 128.8 2.2 146 7.9
2004-07-05 07:28:39 51°9.654 2°40.378 129.2 2.2 146 7.8
2004-07-05 07:28:44 51°9.651 2°40.381 129.5 2.1 148 7.8
2004-07-05 07:28:49 51°9.649 2°40.383 129.8 2.1 148 7.8
2004-07-05 07:28:53 51°9.647 2°40.385 130 2.1 148 5.7
2004-07-05 07:28:59 51°9.644 2°40.388 130.1 2 148 7.8
2004-07-05 07:29:04 51°9.642 2°40.39 130.3 2 150 7.7
2004-07-05 07:29:09 51°9.639 2°40.392 130.5 1.9 149 7.8
2004-07-05 07:29:13 51°9.637 2°40.394 130.5 1.9 150 7.7
2004-07-05 07:29:19 51°9.635 2°40.396 130.5 1.9 150 7.7
2004-07-05 07:29:24 51°9.633 2°40.398 130.6 1.9 151 5.7
2004-07-05 07:29:29 51°9.63 2°40.4 130.6 1.8 150 7.7
2004-07-05 07:29:32 51°9.629 2°40.401 130.6 1.8 152 7.7
2004-07-05 07:29:39 51°9.626 2°40.404 130.6 1.8 151 7.7
2004-07-05 07:29:44 51°9.624 2°40.406 130.5 1.8 153 7.7
2004-07-05 07:29:48 51°9.622 2°40.407 130.4 1.7 151 7.7
2004-07-05 07:29:53 51°9.62 2°40.409 130.3 1.7 153 7.6
2004-07-05 07:29:59 51°9.617 2°40.411 130.1 1.6 150 5.7
2004-07-05 07:30:04 51°9.615 2°40.413 129.9 1.6 152 7.7
2004-07-05 07:30:09 51°9.612 2°40.415 129.6 1.6 152 7.7
2004-07-05 07:30:12 51°9.611 2°40.416 129.4 1.6 153 7.6
2004-07-05 07:30:19 51°9.609 2°40.418 129.1 1.6 151 7.6
2004-07-05 07:30:23 51°9.607 2°40.419 129 1.6 152 7.6
2004-07-05 07:30:28 51°9.605 2°40.421 128.7 1.6 154 7.6
2004-07-05 07:30:33 51°9.604 2°40.422 128.4 1.5 153 7.6
2004-07-05 07:30:39 51°9.601 2°40.424 128.2 1.5 153 7.6
2004-07-05 07:30:44 51°9.599 2°40.425 127.7 1.5 153 5.6
2004-07-05 07:30:49 51°9.597 2°40.427 127.4 1.5 153 7.6
2004-07-05 07:30:53 51°9.596 2°40.428 127.1 1.4 153 7.5
2004-07-05 07:30:59 51°9.594 2°40.43 126.6 1.4 153 7.6
2004-07-05 07:31:04 51°9.592 2°40.431 125.8 1.4 152 5.6
2004-07-05 07:31:08 51°9.591 2°40.432 125.2 1.4 153 7.5
2004-07-05 07:31:13 51°9.589 2°40.434 124.4 1.3 152 7.5
2004-07-05 07:31:19 51°9.587 2°40.435 123.7 1.3 151 7.5
2004-07-05 07:31:24 51°9.586 2°40.436 122.9 1.3 152 5.6
2004-07-05 07:31:28 51°9.585 2°40.437 122.1 1.2 150 7.5
2004-07-05 07:31:33 51°9.583 2°40.438 121.2 1.2 152 7.5
2004-07-05 07:31:39 51°9.581 2°40.44 120.4 1.2 151 7.5
2004-07-05 07:31:44 51°9.58 2°40.442 119.3 1.2 150 5.6
2004-07-05 07:31:48 51°9.579 2°40.443 118.3 1.1 148 7.5
2004-07-05 07:31:53 51°9.578 2°40.444 117.3 1.1 147 7.5
2004-07-05 07:31:59 51°9.576 2°40.446 116.5 1.1 147 7.5
2004-07-05 07:32:04 51°9.575 2°40.447 115.4 1 147 5.6
2004-07-05 07:32:08 51°9.574 2°40.448 114.3 1 141 7.4
2004-07-05 07:32:13 51°9.573 2°40.449 113.2 1.2 138 7.5
2004-07-05 07:32:18 51°9.572 2°40.452 111.3 1.3 127 7.4
2004-07-05 07:32:24 51°9.571 2°40.455 108.5 1.5 120 7.4
2004-07-05 07:32:28 51°9.57 2°40.457 105 1.5 113 7.4
2004-07-05 07:32:33 51°9.57 2°40.461 101.1 1.6 106 7.4
2004-07-05 07:32:37 51°9.569 2°40.464 98 1.7 100 7.4
2004-07-05 07:32:44 51°9.569 2°40.469 94 1.8 92 7.4
2004-07-05 07:32:49 51°9.57 2°40.473 90 1.9 88 5.5
2004-07-05 07:32:52 51°9.57 2°40.476 85 2.1 80 7.4
2004-07-05 07:32:59 51°9.571 2°40.482 81.9 2.1 79 7.4
2004-07-05 07:33:04 51°9.572 2°40.488 77.6 2.5 67 7.4
2004-07-05 07:33:09 51°9.574 2°40.493 72.6 2.7 60 7.4
2004-07-05 07:33:13 51°9.577 2°40.497 67.7 3 52 7.4
2004-07-05 07:33:19 51°9.581 2°40.503 62.3 3.2 49 5.5
2004-07-05 07:33:24 51°9.585 2°40.508 56.5 3.6 36 7.3
2004-07-05 07:33:29 51°9.589 2°40.512 50.2 3.9 32 7.4
2004-07-05 07:33:34 51°9.595 2°40.516 43 4.1 26 7.4
2004-07-05 07:33:39 51°9.601 2°40.519 37.7 4.5 20 5.5
2004-07-05 07:33:44 51°9.608 2°40.521 31 5.1 9 7.4
2004-07-05 07:33:48 51°9.614 2°40.522 23.6 5.5 4 7.4
2004-07-05 07:33:53 51°9.623 2°40.522 17 5.9 359 7.5
2004-07-05 07:33:59 51°9.633 2°40.52 11.9 6.3 357 5.6
2004-07-05 07:34:04 51°9.643 2°40.517 7.2 7.1 350 7.5
2004-07-05 07:34:09 51°9.653 2°40.513 1.8 7.4 346 7.5
2004-07-05 07:34:13 51°9.661 2°40.508 357 7.8 342 7.5
2004-07-05 07:34:19 51°9.674 2°40.5 353 8.2 337 5.6
2004-07-05 07:34:23 51°9.682 2°40.493 348.2 8.8 332 7.6
2004-07-05 07:34:28 51°9.693 2°40.482 344 9.1 330 7.6
2004-07-05 07:34:32 51°9.702 2°40.473 339.4 9.6 325 5.7
2004-07-05 07:34:39 51°9.717 2°40.454 335.3 9.7 323 7.7
2004-07-05 07:34:44 51°9.727 2°40.439 331.2 10.2 317 7.7
2004-07-05 07:34:49 51°9.738 2°40.422 327.7 10.5 314 7.8
2004-07-05 07:34:53 51°9.745 2°40.407 323.5 10.9 309 7.8
2004-07-05 07:34:59 51°9.756 2°40.383 318.9 11.1 305 7.9
2004-07-05 07:35:04 51°9.764 2°40.362 314.1 11.4 300 7.9
2004-07-05 07:35:08 51°9.769 2°40.343 309.2 11.6 297 8
2004-07-05 07:35:14 51°9.777 2°40.314 304.4 11.9 293 8
2004-07-05 07:35:19 51°9.783 2°40.288 300.5 12.3 290 8.1
2004-07-05 07:35:24 51°9.788 2°40.262 297.9 12.5 287 8.2
2004-07-05 07:35:29 51°9.793 2°40.235 295.5 12.7 286 8.2
2004-07-05 07:35:34 51°9.796 2°40.207 292.5 13 280 8.2
2004-07-05 07:35:39 51°9.798 2°40.178 287.7 13.1 278 8.3
2004-07-05 07:35:43 51°9.798 2°40.154 282.1 13.4 270 8.3
2004-07-05 07:35:49 51°9.797 2°40.118 276.5 13.5 268 8.3
2004-07-05 07:35:53 51°9.795 2°40.095 273.4 13.6 265 8.3
2004-07-05 07:35:59 51°9.792 2°40.059 270.4 13.7 262 8.4
2004-07-05 07:36:04 51°9.789 2°40.029 266.9 13.8 259 8.4
2004-07-05 07:36:08 51°9.785 2°40.005 263.7 13.9 257 8.4
2004-07-05 07:36:12 51°9.782 2°39.981 261.8 14 257 8.4
2004-07-05 07:36:19 51°9.774 2°39.939 258.8 14.1 254 8.5
2004-07-05 07:36:23 51°9.77 2°39.915 257.8 14.1 255 8.5
2004-07-05 07:36:29 51°9.763 2°39.879 257.8 14.2 254 8.5
2004-07-05 07:36:33 51°9.759 2°39.855 257.8 14.2 255 8.5
2004-07-05 07:36:39 51°9.754 2°39.818 258.7 14.3 256 8.6
2004-07-05 07:36:44 51°9.75 2°39.788 260 14.3 258 8.5
2004-07-05 07:36:48 51°9.746 2°39.763 261.5 14.3 258 8.6
2004-07-05 07:36:53 51°9.742 2°39.732 262.2 14.3 259 8.6
2004-07-05 07:36:59 51°9.738 2°39.695 262.6 14.4 259 8.6
2004-07-05 07:37:03 51°9.735 2°39.67 262.9 14.4 259 8.6
2004-07-05 07:37:09 51°9.73 2°39.633 263 14.4 258 8.7
2004-07-05 07:37:13 51°9.726 2°39.608 262.3 14.5 256 8.7
2004-07-05 07:37:19 51°9.721 2°39.571 261.1 14.5 256 8.7
2004-07-05 07:37:24 51°9.715 2°39.541 260.1 14.4 254 8.7
2004-07-05 07:37:29 51°9.71 2°39.51 258.9 14.5 254 8.7
2004-07-05 07:37:33 51°9.705 2°39.485 257.7 14.5 254 8.7
2004-07-05 07:37:39 51°9.698 2°39.448 257.3 14.5 253 8.7
2004-07-05 07:37:44 51°9.692 2°39.418 256.9 14.5 253 8.8
2004-07-05 07:37:48 51°9.687 2°39.393 256.8 14.5 253 8.8
2004-07-05 07:37:53 51°9.682 2°39.363 256.9 14.5 254 8.9
2004-07-05 07:37:59 51°9.675 2°39.325 257.6 14.5 254 8.8
2004-07-05 07:38:04 51°9.671 2°39.294 259.1 14.6 257 8.9
2004-07-05 07:38:09 51°9.667 2°39.263 260.5 14.6 257 9
2004-07-05 07:38:13 51°9.663 2°39.237 261.6 14.6 258 8.9
2004-07-05 07:38:19 51°9.659 2°39.2 262 14.6 258 9
2004-07-05 07:38:24 51°9.654 2°39.168 262.5 14.6 258 9
2004-07-05 07:38:28 51°9.651 2°39.143 262.7 14.6 258 9.1
2004-07-05 07:38:40 51°9.641 2°39.067 262 14.6 256 9.1
2004-07-05 07:38:47 51°9.634 2°39.023 260.8 14.6 256 9.1
2004-07-05 07:38:52 51°9.628 2°38.992 259.8 14.6 254 9.2
2004-07-05 07:38:57 51°9.623 2°38.961 258.8 14.6 255 9.2
2004-07-05 07:39:01 51°9.618 2°38.936 258.3 14.6 254 9.2
2004-07-05 07:39:07 51°9.612 2°38.9 258 14.6 254 9.3
2004-07-05 07:39:12 51°9.607 2°38.868 257.9 14.7 255 9.3
2004-07-05 07:39:17 51°9.602 2°38.837 258.6 14.7 256 9.4
2004-07-05 07:39:21 51°9.598 2°38.811 259.9 14.7 257 9.4
2004-07-05 07:39:25 51°9.594 2°38.786 260.7 14.7 257 9.5
2004-07-05 07:39:32 51°9.588 2°38.742 261.3 14.7 258 9.4
2004-07-05 07:39:36 51°9.585 2°38.716 262 14.7 257 9.5
2004-07-05 07:39:40 51°9.581 2°38.691 262 14.7 257 9.5
2004-07-05 07:39:47 51°9.575 2°38.648 261.8 14.7 257 9.5
2004-07-05 07:39:52 51°9.57 2°38.616 261.4 14.7 257 9.5
2004-07-05 07:39:57 51°9.565 2°38.584 260.6 14.7 256 9.5
2004-07-05 07:40:01 51°9.561 2°38.559 259.8 14.7 255 9.5
2004-07-05 07:40:07 51°9.554 2°38.522 259.4 14.7 255 9.6